Map

Track Data

SID SEASON NUMBER BASIN SUBBASIN NAME ISO_TIME NATURE LAT LON WMO_WIND WMO_PRES WMO_AGENCY TRACK_TYPE DIST2LAND LANDFALL IFLAG USA_AGENCY USA_ATCF_ID USA_LAT USA_LON USA_RECORD USA_STATUS USA_WIND USA_PRES USA_SSHS USA_R34_NE USA_R34_SE USA_R34_SW USA_R34_NW USA_R50_NE USA_R50_SE USA_R50_SW USA_R50_NW USA_R64_NE USA_R64_SE USA_R64_SW USA_R64_NW USA_POCI USA_ROCI USA_RMW USA_EYE TOKYO_LAT TOKYO_LON TOKYO_GRADE TOKYO_WIND TOKYO_PRES TOKYO_R50_DIR TOKYO_R50_LONG TOKYO_R50_SHORT TOKYO_R30_DIR TOKYO_R30_LONG TOKYO_R30_SHORT TOKYO_LAND CMA_LAT CMA_LON CMA_CAT CMA_WIND CMA_PRES HKO_LAT HKO_LON HKO_CAT HKO_WIND HKO_PRES NEWDELHI_LAT NEWDELHI_LON NEWDELHI_GRADE NEWDELHI_WIND NEWDELHI_PRES NEWDELHI_CI NEWDELHI_DP NEWDELHI_POCI REUNION_LAT REUNION_LON REUNION_TYPE REUNION_WIND REUNION_PRES REUNION_TNUM REUNION_CI REUNION_RMW REUNION_R34_NE REUNION_R34_SE REUNION_R34_SW REUNION_R34_NW REUNION_R50_NE REUNION_R50_SE REUNION_R50_SW REUNION_R50_NW REUNION_R64_NE REUNION_R64_SE REUNION_R64_SW REUNION_R64_NW BOM_LAT BOM_LON BOM_TYPE BOM_WIND BOM_PRES BOM_TNUM BOM_CI BOM_RMW BOM_R34_NE BOM_R34_SE BOM_R34_SW BOM_R34_NW BOM_R50_NE BOM_R50_SE BOM_R50_SW BOM_R50_NW BOM_R64_NE BOM_R64_SE BOM_R64_SW BOM_R64_NW BOM_ROCI BOM_POCI BOM_EYE BOM_POS_METHOD BOM_PRES_METHOD NADI_LAT NADI_LON NADI_CAT NADI_WIND NADI_PRES WELLINGTON_LAT WELLINGTON_LON WELLINGTON_WIND WELLINGTON_PRES DS824_LAT DS824_LON DS824_STAGE DS824_WIND DS824_PRES TD9636_LAT TD9636_LON TD9636_STAGE TD9636_WIND TD9636_PRES TD9635_LAT TD9635_LON TD9635_WIND TD9635_PRES TD9635_ROCI NEUMANN_LAT NEUMANN_LON NEUMANN_CLASS NEUMANN_WIND NEUMANN_PRES MLC_LAT MLC_LON MLC_CLASS MLC_WIND MLC_PRES USA_GUST BOM_GUST BOM_GUST_PER REUNION_GUST REUNION_GUST_PER USA_SEAHGT USA_SEARAD_NE USA_SEARAD_SE USA_SEARAD_SW USA_SEARAD_NW STORM_SPEED STORM_DIR
1941047S14187 1941 12 SP MM NOT_NAMED 1941-02-16 00:00:00 NR -14.0000 186.600 main 85 63 __________O___ -1 -14.0000 -173.400 4 6 109
1941047S14187 1941 12 SP MM NOT_NAMED 1941-02-16 03:00:00 NR -14.0988 186.891 main 63 49 __________P___ -1 -14.0988 -173.109 4 6 110
1941047S14187 1941 12 SP MM NOT_NAMED 1941-02-16 06:00:00 NR -14.1979 187.175 main 49 46 __________P___ -1 -14.1979 -172.825 4 6 110
1941047S14187 1941 12 SP MM NOT_NAMED 1941-02-16 09:00:00 NR -14.2980 187.447 main 55 55 __________P___ -1 -14.2980 -172.553 4 5 112
1941047S14187 1941 12 SP MM NOT_NAMED 1941-02-16 12:00:00 NR -14.4000 187.700 main 67 67 __________O___ -1 -14.4000 -172.300 4 5 114
1941047S14187 1941 12 SP MM NOT_NAMED 1941-02-16 15:00:00 NR -14.5055 187.925 main 79 79 __________P___ -1 -14.5055 -172.075 4 4 120
1941047S14187 1941 12 SP MM NOT_NAMED 1941-02-16 18:00:00 NR -14.6197 188.100 main 95 95 __________P___ -1 -14.6197 -171.900 4 4 133
1941047S14187 1941 12 SP MM NOT_NAMED 1941-02-16 21:00:00 NR -14.7492 188.200 main 109 109 __________P___ -1 -14.7492 -171.800 4 3 161
1941047S14187 1941 12 SP MM NOT_NAMED 1941-02-17 00:00:00 NR -14.9000 188.200 main 130 130 __________O___ -1 -14.9000 -171.800 4 4 196
1941047S14187 1941 12 SP MM NOT_NAMED 1941-02-17 03:00:00 NR -15.0906 188.088 main 149 147 __________P___ -1 -15.0906 -171.912 4 5 218
1941047S14187 1941 12 SP MM NOT_NAMED 1941-02-17 06:00:00 NR -15.3000 187.878 main 168 167 __________P___ -1 -15.3000 -172.122 4 6 228
1941047S14187 1941 12 SP MM NOT_NAMED 1941-02-17 09:00:00 NR -15.5094 187.604 main 190 190 __________P___ -1 -15.5094 -172.396 4 7 234
1941047S14187 1941 12 SP MM NOT_NAMED 1941-02-17 12:00:00 NR -15.7000 187.300 main 212 212 __________O___ -1 -15.7000 -172.700 4 6 238
1941047S14187 1941 12 SP MM NOT_NAMED 1941-02-17 15:00:00 NR -15.8462 187.050 main 227 227 __________P___ -1 -15.8462 -172.950 4 6 242
1941047S14187 1941 12 SP MM NOT_NAMED 1941-02-17 18:00:00 NR -15.9720 186.775 main 254 254 __________P___ -1 -15.9720 -173.225 4 6 247
1941047S14187 1941 12 SP MM NOT_NAMED 1941-02-17 21:00:00 NR -16.0867 186.462 main 275 275 __________P___ -1 -16.0867 -173.538 4 7 251
1941047S14187 1941 12 SP MM NOT_NAMED 1941-02-18 00:00:00 NR -16.2000 186.100 main 302 302 __________O___ -1 -16.2000 -173.900 4 8 252
1941047S14187 1941 12 SP MM NOT_NAMED 1941-02-18 03:00:00 NR -16.3292 185.675 main 334 334 __________P___ -1 -16.3292 -174.325 4 9 253
1941047S14187 1941 12 SP MM NOT_NAMED 1941-02-18 06:00:00 NR -16.4577 185.203 main 383 383 __________P___ -1 -16.4577 -174.797 4 10 255
1941047S14187 1941 12 SP MM NOT_NAMED 1941-02-18 09:00:00 NR -16.5823 184.703 main 426 426 __________P___ -1 -16.5823 -175.297 4 10 256
1941047S14187 1941 12 SP MM NOT_NAMED 1941-02-18 12:00:00 NR -16.7000 184.200 main 458 415 __________O___ -1 -16.7000 -175.800 4 10 257
1941047S14187 1941 12 SP MM NOT_NAMED 1941-02-18 15:00:00 NR -16.8069 183.725 main 404 362 __________P___ -1 -16.8069 -176.275 4 9 257
1941047S14187 1941 12 SP MM NOT_NAMED 1941-02-18 18:00:00 NR -16.9071 183.250 main 351 309 __________P___ -1 -16.9071 -176.750 4 9 258
1941047S14187 1941 12 SP MM NOT_NAMED 1941-02-18 21:00:00 NR -17.0037 182.775 main 309 257 __________P___ -1 -17.0037 -177.225 4 9 258
1941047S14187 1941 12 SP MM NOT_NAMED 1941-02-19 00:00:00 NR -17.1000 182.300 main 257 217 __________O___ -1 -17.1000 -177.700 4 9 257
1941047S14187 1941 12 SP MM NOT_NAMED 1941-02-19 03:00:00 NR -17.2035 181.837 main 206 169 __________P___ -1 -17.2035 -178.163 4 9 257
1941047S14187 1941 12 SP MM NOT_NAMED 1941-02-19 06:00:00 NR -17.3067 181.372 main 169 125 __________P___ -1 -17.3067 -178.628 4 9 257
1941047S14187 1941 12 SP MM NOT_NAMED 1941-02-19 09:00:00 NR -17.4066 180.896 main 125 94 __________P___ -1 -17.4066 -179.104 4 9 258
1941047S14187 1941 12 SP MM NOT_NAMED 1941-02-19 12:00:00 NR -17.5000 180.400 main 94 81 __________O___ -1 -17.5000 -179.600 4 10 260
1941047S14187 1941 12 SP MM NOT_NAMED 1941-02-19 15:00:00 NR -17.5785 179.839 main 90 74 __________P___ -1 -17.5785 179.839 4 11 262
1941047S14187 1941 12 SP MM NOT_NAMED 1941-02-19 18:00:00 NR -17.6506 179.262 main 74 10 __________P___ -1 -17.6506 179.262 4 11 262
1941047S14187 1941 12 SP MM NOT_NAMED 1941-02-19 21:00:00 NR -17.7223 178.705 main 10 0 __________P___ -1 -17.7223 178.705 4 10 262
1941047S14187 1941 12 SP MM NOT_NAMED 1941-02-20 00:00:00 NR -17.8000 178.200 main 0 0 __________O___ -1 -17.8000 178.200 4 9 259
1941047S14187 1941 12 SP MM NOT_NAMED 1941-02-20 03:00:00 NR -17.8920 177.788 main 0 0 __________P___ -1 -17.8920 177.788 4 8 255
1941047S14187 1941 12 SP MM NOT_NAMED 1941-02-20 06:00:00 NR -17.9915 177.432 main 0 0 __________P___ -1 -17.9915 177.432 4 7 253
1941047S14187 1941 12 SP MM NOT_NAMED 1941-02-20 09:00:00 NR -18.0953 177.110 main 15 15 __________P___ -1 -18.0953 177.110 4 6 251
1941047S14187 1941 12 SP MM NOT_NAMED 1941-02-20 12:00:00 NR -18.2000 176.800 main 47 47 __________O___ -1 -18.2000 176.800 4 6 253
1941047S14187 1941 12 SP MM NOT_NAMED 1941-02-20 15:00:00 NR -18.2876 176.468 main 81 81 __________P___ -1 -18.2876 176.468 4 7 254
1941047S14187 1941 12 SP MM NOT_NAMED 1941-02-20 18:00:00 NR -18.3772 176.142 main 124 124 __________P___ -1 -18.3772 176.142 4 6 253
1941047S14187 1941 12 SP MM NOT_NAMED 1941-02-20 21:00:00 NR -18.4782 175.821 main 158 158 __________P___ -1 -18.4782 175.821 4 6 250
1941047S14187 1941 12 SP MM NOT_NAMED 1941-02-21 00:00:00 NR -18.6000 175.500 main 191 191 __________O___ -1 -18.6000 175.500 4 7 245
1941047S14187 1941 12 SP MM NOT_NAMED 1941-02-21 03:00:00 NR -18.7613 175.179 main 229 229 __________P___ -1 -18.7613 175.179 4 7 241
1941047S14187 1941 12 SP MM NOT_NAMED 1941-02-21 06:00:00 NR -18.9422 174.858 main 262 262 __________P___ -1 -18.9422 174.858 4 7 239
1941047S14187 1941 12 SP MM NOT_NAMED 1941-02-21 09:00:00 NR -19.1270 174.532 main 310 310 __________P___ -1 -19.1270 174.532 4 7 240
1941047S14187 1941 12 SP MM NOT_NAMED 1941-02-21 12:00:00 NR -19.3000 174.200 main 347 347 __________O___ -1 -19.3000 174.200 4 7 244
1941047S14187 1941 12 SP MM NOT_NAMED 1941-02-21 15:00:00 NR -19.4353 173.849 main 390 390 __________P___ -1 -19.4353 173.849 4 7 249
1941047S14187 1941 12 SP MM NOT_NAMED 1941-02-21 18:00:00 NR -19.5575 173.492 main 428 428 __________P___ -1 -19.5575 173.492 4 7 250
1941047S14187 1941 12 SP MM NOT_NAMED 1941-02-21 21:00:00 NR -19.6759 173.139 main 471 471 __________P___ -1 -19.6759 173.139 4 7 250
1941047S14187 1941 12 SP MM NOT_NAMED 1941-02-22 00:00:00 NR -19.8000 172.800 main 504 504 __________O___ -1 -19.8000 172.800 4 7 247
1941047S14187 1941 12 SP MM NOT_NAMED 1941-02-22 03:00:00 NR -19.9426 172.481 main 538 538 __________P___ -1 -19.9426 172.481 4 7 244
1941047S14187 1941 12 SP MM NOT_NAMED 1941-02-22 06:00:00 NR -20.0922 172.177 main 575 554 __________P___ -1 -20.0922 172.177 4 6 242
1941047S14187 1941 12 SP MM NOT_NAMED 1941-02-22 09:00:00 NR -20.2457 171.885 main 554 517 __________P___ -1 -20.2457 171.885 4 6 240
1941047S14187 1941 12 SP MM NOT_NAMED 1941-02-22 12:00:00 NR -20.4000 171.600 main 517 484 __________O___ -1 -20.4000 171.600 4 6 241
1941047S14187 1941 12 SP MM NOT_NAMED 1941-02-22 15:00:00 NR -20.5417 171.313 main 484 446 __________P___ -1 -20.5417 171.313 4 6 242
1941047S14187 1941 12 SP MM NOT_NAMED 1941-02-22 18:00:00 NR -20.6848 171.035 main 446 423 __________P___ -1 -20.6848 171.035 4 6 240
1941047S14187 1941 12 SP MM NOT_NAMED 1941-02-22 21:00:00 NR -20.8355 170.763 main 423 385 __________P___ -1 -20.8355 170.763 4 6 238
1941047S14187 1941 12 SP MM NOT_NAMED 1941-02-23 00:00:00 NR -21.0000 170.500 main 385 348 __________O___ -1 -21.0000 170.500 4 6 235
1941047S14187 1941 12 SP MM NOT_NAMED 1941-02-23 03:00:00 NR -21.1815 170.231 main 348 322 __________P___ -1 -21.1815 170.231 4 6 233
1941047S14187 1941 12 SP MM NOT_NAMED 1941-02-23 06:00:00 NR -21.3775 169.970 main 322 286 __________P___ -1 -21.3775 169.970 4 6 229
1941047S14187 1941 12 SP MM NOT_NAMED 1941-02-23 09:00:00 NR -21.5847 169.724 main 286 261 __________P___ -1 -21.5847 169.724 4 6 226
1941047S14187 1941 12 SP MM NOT_NAMED 1941-02-23 12:00:00 NR -21.8000 169.500 main 261 237 __________O___ -1 -21.8000 169.500 4 6 223
1941047S14187 1941 12 SP MM NOT_NAMED 1941-02-23 15:00:00 NR -22.0013 169.307 main 237 216 __________P___ -1 -22.0013 169.307 4 5 219
1941047S14187 1941 12 SP MM NOT_NAMED 1941-02-23 18:00:00 NR -22.2122 169.134 main 216 205 __________P___ -1 -22.2122 169.134 4 5 215
1941047S14187 1941 12 SP MM NOT_NAMED 1941-02-23 21:00:00 NR -22.4420 168.969 main 205 187 __________P___ -1 -22.4420 168.969 4 6 212
1941047S14187 1941 12 SP MM NOT_NAMED 1941-02-24 00:00:00 NR -22.7000 168.800 main 190 177 __________O___ -1 -22.7000 168.800 4 6 213
1941047S14187 1941 12 SP MM NOT_NAMED 1941-02-24 03:00:00 NR -22.9801 168.595 main 181 172 __________P___ -1 -22.9801 168.595 4 7 213
1941047S14187 1941 12 SP MM NOT_NAMED 1941-02-24 06:00:00 NR -23.2901 168.385 main 181 181 __________P___ -1 -23.2901 168.385 4 8 210
1941047S14187 1941 12 SP MM NOT_NAMED 1941-02-24 09:00:00 NR -23.6301 168.183 main 188 188 __________P___ -1 -23.6301 168.183 4 8 207
1941047S14187 1941 12 SP MM NOT_NAMED 1941-02-24 12:00:00 NR -24.0000 168.000 main 211 211 __________O___ -1 -24.0000 168.000 4 8 204
1941047S14187 1941 12 SP MM NOT_NAMED 1941-02-24 15:00:00 NR -24.3921 167.813 main 241 241 __________P___ -1 -24.3921 167.813 4 9 201
1941047S14187 1941 12 SP MM NOT_NAMED 1941-02-24 18:00:00 NR -24.8124 167.654 main 280 277 __________P___ -1 -24.8124 167.654 4 9 196
1941047S14187 1941 12 SP MM NOT_NAMED 1941-02-24 21:00:00 NR -25.2515 167.542 main 329 329 __________P___ -1 -25.2515 167.542 4 9 189
1941047S14187 1941 12 SP MM NOT_NAMED 1941-02-25 00:00:00 NR -25.7000 167.500 main 373 373 __________O___ -1 -25.7000 167.500 4 9 181
1941047S14187 1941 12 SP MM NOT_NAMED 1941-02-25 03:00:00 NR -26.1466 167.524 main 417 417 __________P___ -1 -26.1466 167.524 4 9 173
1941047S14187 1941 12 SP MM NOT_NAMED 1941-02-25 06:00:00 NR -26.5996 167.622 main 474 474 __________P___ -1 -26.5996 167.622 4 9 166
1941047S14187 1941 12 SP MM NOT_NAMED 1941-02-25 09:00:00 NR -27.0528 167.784 main 532 532 __________P___ -1 -27.0528 167.784 4 10 160
1941047S14187 1941 12 SP MM NOT_NAMED 1941-02-25 12:00:00 NR -27.5000 168.000 main 580 580 __________O___ -1 -27.5000 168.000 4 10 154
1941047S14187 1941 12 SP MM NOT_NAMED 1941-02-25 15:00:00 NR -27.9364 168.260 main 630 630 __________P___ -1 -27.9364 168.260 4 10 151
1941047S14187 1941 12 SP MM NOT_NAMED 1941-02-25 18:00:00 NR -28.3633 168.553 main 691 691 __________P___ -1 -28.3633 168.553 4 10 148
1941047S14187 1941 12 SP MM NOT_NAMED 1941-02-25 21:00:00 NR -28.7836 168.870 main 725 672 __________P___ -1 -28.7836 168.870 4 10 146
1941047S14187 1941 12 SP MM NOT_NAMED 1941-02-26 00:00:00 NR -29.2000 169.200 main 672 __________O___ -1 -29.2000 169.200 4 10 145

Digital Typhoon Data and Search

About IBTrACS Database

This database is a web-friendly format of International Best Track Archive for Climate Stewardship (IBTrACS), a global best track data archive curated by NOAA dating back to 1842.

Updated: 2021-11-26